Bitahochee, Arizona
Current Conditions -  °F | °C
As of 11:56 AM on Tuesday 21 Oct 2014 (Local Time) from KINW Reporting Station
Clear Clear  
Wind Chill: 69°   Ceiling: Unl
Heat Index: 69°   Visibility: 10mi
Dew Point: 45°   Wind: 6mph
Humidity: 42%   Direction: 120°ESE
Pressure: 30.1"   Gusts: NA
Location:  35.4077°N, 110.085°W
Report Text: KINW 211756Z AUTO 12005KT 10SM CLR 21/07 A3010 RMK AO2 SLP141 T02060072 10206 20067 58007
Loading
Personal Weather Stations






























Interactive Weather Map
Tropical Storm Tracking
New forecast layout! Learn more

10-Day Weather Forecast

Advertisements
Track Severe Weather on mobile